createdAt,value
2022-09-20T00:01:12.979Z,0.37
2022-09-20T00:03:42.548Z,0.50
2022-09-20T00:06:12.503Z,0.73
2022-09-20T00:08:41.333Z,1.33
2022-09-20T00:11:13.135Z,0.47
2022-09-20T00:13:41.255Z,0.73
2022-09-20T00:16:12.805Z,0.37
2022-09-20T00:18:41.158Z,0.70
2022-09-20T00:21:13.988Z,0.40
2022-09-20T00:23:41.583Z,0.30
2022-09-20T00:26:10.947Z,0.43
2022-09-20T00:28:38.575Z,0.50
2022-09-20T00:31:06.781Z,0.40
2022-09-20T00:33:48.682Z,0.50
2022-09-20T00:36:17.443Z,0.70
2022-09-20T00:38:45.210Z,0.50
2022-09-20T00:41:14.879Z,0.40
2022-09-20T00:43:44.655Z,0.60
2022-09-20T00:46:24.203Z,0.30
2022-09-20T00:48:56.972Z,0.50
2022-09-20T00:51:29.847Z,0.50
2022-09-20T00:54:00.986Z,0.33
2022-09-20T00:56:34.103Z,0.30
2022-09-20T00:59:07.325Z,0.30
2022-09-20T01:01:36.421Z,0.50
2022-09-20T01:04:04.748Z,0.50
2022-09-20T01:06:35.154Z,0.43
2022-09-20T01:09:07.797Z,0.33
2022-09-20T01:11:39.159Z,0.20
2022-09-20T01:14:07.202Z,0.10
2022-09-20T01:16:35.306Z,0.50
2022-09-20T01:19:12.986Z,0.20
2022-09-20T01:21:40.882Z,1.00
2022-09-20T01:24:17.455Z,1.00
2022-09-20T01:27:00.275Z,0.50
2022-09-20T01:29:40.952Z,0.30
2022-09-20T01:32:14.928Z,0.60
2022-09-20T01:34:48.103Z,0.70
2022-09-20T01:37:22.931Z,1.13
2022-09-20T01:39:58.661Z,0.47
2022-09-20T01:42:33.583Z,0.83
2022-09-20T01:45:11.566Z,1.30
2022-09-20T01:47:45.387Z,1.07
2022-09-20T01:50:22.158Z,0.50
2022-09-20T01:53:11.313Z,0.73
2022-09-20T01:56:12.449Z,1.23
2022-09-20T01:59:25.269Z,0.90
2022-09-20T02:02:07.872Z,0.50
2022-09-20T02:05:00.423Z,0.63
2022-09-20T02:07:57.693Z,0.37
2022-09-20T02:10:59.746Z,0.40
2022-09-20T02:13:32.479Z,0.87
2022-09-20T02:16:14.507Z,0.60
2022-09-20T02:19:06.179Z,0.83
2022-09-20T02:21:40.298Z,0.93
2022-09-20T02:24:23.306Z,1.07
2022-09-20T02:27:08.791Z,0.83
2022-09-20T02:29:45.932Z,1.03
2022-09-20T02:32:29.199Z,0.90
2022-09-20T02:35:14.988Z,0.93
2022-09-20T02:37:58.853Z,0.90
2022-09-20T02:40:53.464Z,0.60
2022-09-20T02:43:31.509Z,1.00
2022-09-20T02:46:04.570Z,1.03
2022-09-20T02:48:50.924Z,0.70
2022-09-20T02:51:27.066Z,0.60
2022-09-20T02:54:06.178Z,0.70
2022-09-20T02:56:44.006Z,0.80
2022-09-20T02:59:25.112Z,0.93
2022-09-20T03:02:04.674Z,0.60
2022-09-20T03:04:43.723Z,0.80
2022-09-20T03:07:22.143Z,0.70
2022-09-20T03:10:05.158Z,0.93
2022-09-20T03:12:44.667Z,0.80
2022-09-20T03:15:21.056Z,1.47
2022-09-20T03:17:53.688Z,0.93
2022-09-20T03:20:35.379Z,0.73
2022-09-20T03:23:14.719Z,1.43
2022-09-20T03:25:55.854Z,1.07
2022-09-20T03:28:49.197Z,0.53
2022-09-20T03:31:28.802Z,0.60
2022-09-20T03:34:08.971Z,0.90
2022-09-20T03:36:53.325Z,0.70
2022-09-20T03:39:40.024Z,0.50
2022-09-20T03:42:17.487Z,1.17
2022-09-20T03:45:04.274Z,0.97
2022-09-20T03:47:51.019Z,0.90
2022-09-20T03:50:35.100Z,0.80
2022-09-20T03:53:29.362Z,0.47
2022-09-20T03:56:26.650Z,1.30
2022-09-20T03:59:22.155Z,0.90
2022-09-20T04:02:11.281Z,1.33
2022-09-20T04:04:47.195Z,0.60
2022-09-20T04:07:20.403Z,0.57
2022-09-20T04:10:04.240Z,0.90
2022-09-20T04:12:45.486Z,1.40
2022-09-20T04:15:36.621Z,0.83
2022-09-20T04:18:12.556Z,1.80
2022-09-20T04:20:47.139Z,0.90
2022-09-20T04:23:26.569Z,2.10
2022-09-20T04:25:55.465Z,1.47
2022-09-20T04:28:29.600Z,0.70
2022-09-20T04:31:04.934Z,0.83
2022-09-20T04:33:38.259Z,1.13
2022-09-20T04:36:29.404Z,1.17
2022-09-20T04:39:05.134Z,1.33
2022-09-20T04:42:11.437Z,1.10
2022-09-20T04:45:08.365Z,0.80
2022-09-20T04:48:00.772Z,1.47
2022-09-20T04:50:57.169Z,1.37
2022-09-20T04:53:45.560Z,1.77
2022-09-20T04:56:21.883Z,1.13
2022-09-20T04:59:00.774Z,1.30
2022-09-20T05:02:09.842Z,1.43
2022-09-20T05:05:16.669Z,1.10
2022-09-20T05:08:40.592Z,0.90
2022-09-20T05:11:31.936Z,0.60
2022-09-20T05:14:24.684Z,0.87
2022-09-20T05:17:15.018Z,1.60
2022-09-20T05:19:58.473Z,1.10
2022-09-20T05:22:54.953Z,0.60
2022-09-20T05:25:38.358Z,0.63
2022-09-20T05:28:11.219Z,1.03
2022-09-20T05:30:45.447Z,2.13
2022-09-20T05:33:42.208Z,1.03
2022-09-20T05:36:18.819Z,0.97
2022-09-20T05:38:50.867Z,1.40
2022-09-20T05:41:32.273Z,0.97
2022-09-20T05:44:09.725Z,1.60
2022-09-20T05:46:47.455Z,1.57
2022-09-20T05:49:34.462Z,1.53
2022-09-20T05:52:23.867Z,1.70
2022-09-20T05:55:19.606Z,0.83
2022-09-20T05:58:04.104Z,1.67
2022-09-20T06:00:41.041Z,1.03
2022-09-20T06:03:19.719Z,1.50
2022-09-20T06:05:59.052Z,1.33
2022-09-20T06:08:42.176Z,1.50
2022-09-20T06:11:34.427Z,1.37
2022-09-20T06:14:15.383Z,2.00
2022-09-20T06:16:53.680Z,1.33
2022-09-20T06:19:32.777Z,1.20
2022-09-20T06:22:11.284Z,1.20
2022-09-20T06:24:44.347Z,1.17
2022-09-20T06:27:19.242Z,1.70
2022-09-20T06:29:54.164Z,1.07
2022-09-20T06:32:22.350Z,1.43
2022-09-20T06:34:50.801Z,0.93
2022-09-20T06:37:51.486Z,0.90
2022-09-20T06:40:50.699Z,1.20
2022-09-20T06:43:19.252Z,1.23
2022-09-20T06:45:47.387Z,0.87
2022-09-20T06:48:15.530Z,1.40
2022-09-20T06:50:45.365Z,1.13
2022-09-20T06:53:18.921Z,1.53
2022-09-20T06:55:47.806Z,1.20
2022-09-20T06:58:15.417Z,1.40
2022-09-20T07:00:43.552Z,0.73
2022-09-20T07:03:12.649Z,1.10
2022-09-20T07:05:41.186Z,1.57
2022-09-20T07:08:08.800Z,1.00
2022-09-20T07:10:38.610Z,0.93
2022-09-20T07:13:06.730Z,1.60
2022-09-20T07:15:35.831Z,1.33
2022-09-20T07:18:03.723Z,1.20
2022-09-20T07:20:31.760Z,1.13
2022-09-20T07:22:59.365Z,1.67
2022-09-20T07:25:27.461Z,1.80
2022-09-20T07:27:57.298Z,2.33
2022-09-20T07:30:25.253Z,1.23
2022-09-20T07:32:52.878Z,2.23
2022-09-20T07:35:20.865Z,1.20
2022-09-20T07:37:48.462Z,1.10
2022-09-20T07:40:17.490Z,3.90
2022-09-20T07:42:46.002Z,1.07
2022-09-20T07:45:15.985Z,2.30
2022-09-20T07:47:44.851Z,0.90
2022-09-20T07:50:13.117Z,1.20
2022-09-20T07:52:40.727Z,3.40
2022-09-20T07:55:09.949Z,1.73
2022-09-20T07:57:38.202Z,2.17
2022-09-20T08:00:09.286Z,1.80
2022-09-20T08:02:45.360Z,2.20
2022-09-20T08:05:13.412Z,2.27
2022-09-20T08:07:41.035Z,1.30
2022-09-20T08:10:09.385Z,1.97
2022-09-20T08:15:25.878Z,3.07
2022-09-20T08:17:54.998Z,2.50
2022-09-20T08:20:23.056Z,3.50
2022-09-20T08:23:12.629Z,2.47
2022-09-20T08:25:39.718Z,3.50
2022-09-20T08:28:07.327Z,2.90
2022-09-20T08:30:35.048Z,3.50
2022-09-20T08:33:06.935Z,3.27
2022-09-20T08:35:38.258Z,3.33
2022-09-20T08:40:56.395Z,2.73
2022-09-20T08:43:31.168Z,2.13
2022-09-20T08:46:05.414Z,2.43
2022-09-20T08:48:35.031Z,3.57
2022-09-20T08:51:07.032Z,2.53
2022-09-20T08:53:35.420Z,2.90
2022-09-20T08:56:04.707Z,2.73
2022-09-20T08:58:32.421Z,2.17
2022-09-20T09:01:00.745Z,1.27
2022-09-20T09:03:29.220Z,2.93
2022-09-20T09:05:59.719Z,2.00
2022-09-20T09:08:30.967Z,2.80
2022-09-20T09:11:08.766Z,1.10
2022-09-20T09:13:45.366Z,2.00
2022-09-20T09:16:22.329Z,1.47
2022-09-20T09:18:51.751Z,2.43
2022-09-20T09:21:23.454Z,2.03
2022-09-20T09:23:54.375Z,2.00
2022-09-20T09:26:24.429Z,2.37
2022-09-20T09:29:10.216Z,2.20
2022-09-20T09:31:39.755Z,1.67
2022-09-20T09:34:24.512Z,1.50
2022-09-20T09:36:55.424Z,2.40
2022-09-20T09:39:26.448Z,1.60
2022-09-20T09:41:55.397Z,1.57
2022-09-20T09:44:25.581Z,2.10
2022-09-20T09:46:54.454Z,2.13
2022-09-20T09:49:24.190Z,3.33
2022-09-20T09:52:06.967Z,1.90
2022-09-20T09:54:37.219Z,3.27
2022-09-20T09:57:20.523Z,2.37
2022-09-20T10:00:07.522Z,3.20
2022-09-20T10:03:24.845Z,2.10
2022-09-20T10:06:08.354Z,1.70
2022-09-20T10:08:46.290Z,2.13
2022-09-20T10:11:32.382Z,1.93
2022-09-20T10:14:13.434Z,1.77
2022-09-20T10:17:00.631Z,2.77
2022-09-20T10:19:50.314Z,2.00
2022-09-20T10:22:29.104Z,2.63
2022-09-20T10:25:10.231Z,1.77
2022-09-20T10:27:52.498Z,1.63
2022-09-20T10:30:23.419Z,1.17
2022-09-20T10:33:01.655Z,1.17
2022-09-20T10:35:46.834Z,1.23
2022-09-20T10:38:19.655Z,1.37
2022-09-20T10:41:25.839Z,1.80
2022-09-20T10:44:06.178Z,1.70
2022-09-20T10:46:46.179Z,2.07
2022-09-20T10:49:32.584Z,1.97
2022-09-20T10:52:14.793Z,2.07
2022-09-20T10:55:03.053Z,0.70
2022-09-20T10:58:08.287Z,2.03
2022-09-20T11:00:47.270Z,1.00
2022-09-20T11:03:30.133Z,3.00
2022-09-20T11:06:12.759Z,1.03
2022-09-20T11:08:42.206Z,1.10
2022-09-20T11:11:14.152Z,1.70
2022-09-20T11:13:48.438Z,1.07
2022-09-20T11:16:23.328Z,1.80
2022-09-20T11:18:58.889Z,1.13
2022-09-20T11:21:32.479Z,1.27
2022-09-20T11:24:06.435Z,2.93
2022-09-20T11:26:40.037Z,2.73
2022-09-20T11:29:20.801Z,1.83
2022-09-20T11:31:51.712Z,1.57
2022-09-20T11:34:25.633Z,1.93
2022-09-20T11:36:58.736Z,0.60
2022-09-20T11:39:31.343Z,1.53
2022-09-20T11:42:02.565Z,1.10
2022-09-20T11:44:42.094Z,1.17
2022-09-20T11:47:36.600Z,2.13
2022-09-20T11:51:06.835Z,1.20
2022-09-20T11:57:46.847Z,0.60
2022-09-20T12:00:17.731Z,0.90
2022-09-20T12:02:49.727Z,2.20
2022-09-20T12:05:32.138Z,0.87
2022-09-20T12:08:02.932Z,1.00
2022-09-20T12:10:35.154Z,0.80
2022-09-20T12:13:05.572Z,1.77
2022-09-20T12:15:36.886Z,1.73
2022-09-20T12:18:39.522Z,0.70
2022-09-20T12:21:15.277Z,1.27
2022-09-20T12:24:00.835Z,0.73
2022-09-20T12:26:55.811Z,0.70
2022-09-20T12:29:55.691Z,1.57
2022-09-20T12:32:55.296Z,0.83
2022-09-20T12:36:00.562Z,1.00
2022-09-20T12:38:34.905Z,1.10
2022-09-20T12:41:07.806Z,0.73
2022-09-20T12:43:39.817Z,1.27
2022-09-20T12:46:12.036Z,1.23
2022-09-20T12:48:41.732Z,1.33
2022-09-20T12:51:40.338Z,0.60
2022-09-20T12:54:12.073Z,1.53
2022-09-20T12:56:46.211Z,0.83
2022-09-20T12:59:23.268Z,0.60
2022-09-20T13:01:51.545Z,1.23
2022-09-20T13:04:52.955Z,1.03
2022-09-20T13:07:44.723Z,0.40
2022-09-20T13:10:32.233Z,0.43
2022-09-20T13:13:05.823Z,1.00
2022-09-20T13:15:35.612Z,0.60
2022-09-20T13:18:04.299Z,0.80
2022-09-20T13:20:35.137Z,0.70
2022-09-20T13:23:05.192Z,0.70
2022-09-20T13:25:34.982Z,0.67
2022-09-20T13:28:10.326Z,0.57
2022-09-20T13:30:41.827Z,1.30
2022-09-20T13:33:18.492Z,0.60
2022-09-20T13:35:49.898Z,0.67
2022-09-20T13:38:25.313Z,1.00
2022-09-20T13:40:54.132Z,2.03
2022-09-20T13:43:29.249Z,0.43
2022-09-20T13:45:58.878Z,0.40
2022-09-20T13:48:28.470Z,0.20
2022-09-20T13:50:58.296Z,0.60
2022-09-20T13:53:41.621Z,0.67
2022-09-20T13:56:15.127Z,0.60
2022-09-20T13:58:43.636Z,0.40
2022-09-20T14:01:24.102Z,1.03
2022-09-20T14:03:51.870Z,0.60
2022-09-20T14:06:28.075Z,0.97
2022-09-20T14:08:57.618Z,1.50
2022-09-20T14:11:28.165Z,0.63
2022-09-20T14:13:58.140Z,1.33
2022-09-20T14:16:30.979Z,0.50
2022-09-20T14:19:00.342Z,0.73
2022-09-20T14:21:33.011Z,0.87
2022-09-20T14:24:04.411Z,0.67
2022-09-20T14:26:34.716Z,1.40
2022-09-20T14:29:30.394Z,1.27
2022-09-20T14:32:01.120Z,0.37
2022-09-20T14:34:29.520Z,0.30
2022-09-20T14:37:07.517Z,0.30
2022-09-20T14:39:46.248Z,0.63
2022-09-20T14:42:21.124Z,0.50
2022-09-20T14:44:53.429Z,0.40
2022-09-20T14:47:28.643Z,1.40
2022-09-20T14:49:58.023Z,1.30
2022-09-20T14:52:45.359Z,0.90
2022-09-20T14:55:28.570Z,1.13
2022-09-20T14:58:03.129Z,0.43
2022-09-20T15:00:32.513Z,0.23
2022-09-20T15:03:08.290Z,0.30
2022-09-20T15:05:36.286Z,0.40
2022-09-20T15:08:05.233Z,0.47
2022-09-20T15:10:33.334Z,0.70
2022-09-20T15:13:00.917Z,1.20
2022-09-20T15:15:29.362Z,1.07
2022-09-20T15:17:57.012Z,0.40
2022-09-20T15:20:25.432Z,0.77
2022-09-20T15:22:53.397Z,0.60
2022-09-20T15:25:22.629Z,1.23
2022-09-20T15:27:50.824Z,0.53
2022-09-20T15:30:20.934Z,0.33
2022-09-20T15:32:48.570Z,0.50
2022-09-20T15:35:16.269Z,1.13
2022-09-20T15:37:43.853Z,0.83
2022-09-20T15:40:12.367Z,0.50
2022-09-20T15:42:41.755Z,0.40
2022-09-20T15:45:11.293Z,1.03
2022-09-20T15:47:39.714Z,1.17
2022-09-20T15:50:09.642Z,1.40
2022-09-20T15:52:39.826Z,0.20
2022-09-20T15:55:09.453Z,0.67
2022-09-20T15:57:37.066Z,0.30
2022-09-20T16:00:07.192Z,1.43
2022-09-20T16:02:36.118Z,0.63
2022-09-20T16:05:05.899Z,0.37
2022-09-20T16:07:33.710Z,0.80
2022-09-20T16:10:01.466Z,1.43
2022-09-20T16:12:29.053Z,1.60
2022-09-20T16:14:57.006Z,0.40
2022-09-20T16:17:39.869Z,0.43
2022-09-20T16:20:08.802Z,0.50
2022-09-20T16:22:36.435Z,0.57
2022-09-20T16:25:06.047Z,1.10
2022-09-20T16:27:34.677Z,1.37
2022-09-20T16:30:03.437Z,0.30
2022-09-20T16:32:32.383Z,0.30
2022-09-20T16:35:04.076Z,0.50
2022-09-20T16:37:32.676Z,0.40
2022-09-20T16:40:00.882Z,0.30
2022-09-20T16:42:29.715Z,1.50
2022-09-20T16:44:57.693Z,0.57
2022-09-20T16:47:26.234Z,0.30
2022-09-20T16:49:56.597Z,0.40
2022-09-20T16:52:26.374Z,0.67
2022-09-20T16:54:54.817Z,0.40
2022-09-20T16:57:23.139Z,0.53
2022-09-20T16:59:51.827Z,0.90
2022-09-20T17:02:19.437Z,0.27
2022-09-20T17:04:47.097Z,0.83
2022-09-20T17:07:16.830Z,0.47
2022-09-20T17:09:44.445Z,0.40
2022-09-20T17:12:13.940Z,0.20
2022-09-20T17:14:41.806Z,0.70
2022-09-20T17:17:09.920Z,0.43
2022-09-20T17:19:37.502Z,0.50
2022-09-20T17:22:07.449Z,0.37
2022-09-20T17:24:36.396Z,0.47
2022-09-20T17:27:04.739Z,0.33
2022-09-20T17:29:32.344Z,0.23
2022-09-20T17:32:00.598Z,0.97
2022-09-20T17:34:29.459Z,0.60
2022-09-20T17:36:57.381Z,0.97
2022-09-20T17:39:25.229Z,0.30
2022-09-20T17:41:54.187Z,0.50
2022-09-20T17:44:21.784Z,0.60
2022-09-20T17:46:50.708Z,0.87
2022-09-20T17:49:19.937Z,0.43
2022-09-20T17:51:49.617Z,0.37
2022-09-20T17:54:17.721Z,0.20
2022-09-20T17:56:47.394Z,0.60
2022-09-20T17:59:17.766Z,0.40
2022-09-20T18:01:48.149Z,0.80
2022-09-20T18:04:15.857Z,0.40
2022-09-20T18:06:47.362Z,0.40
2022-09-20T18:09:16.423Z,0.77
2022-09-20T18:11:46.741Z,1.13
2022-09-20T18:14:16.603Z,0.80
2022-09-20T18:16:45.179Z,0.73
2022-09-20T18:19:14.096Z,0.40
2022-09-20T18:21:41.758Z,0.40
2022-09-20T18:24:11.615Z,0.87
2022-09-20T18:26:40.422Z,0.43
2022-09-20T18:29:11.162Z,0.83
2022-09-20T18:31:43.455Z,0.80
2022-09-20T18:34:18.125Z,0.40
2022-09-20T18:36:48.157Z,0.40
2022-09-20T18:39:15.766Z,1.13
2022-09-20T18:41:44.743Z,0.87
2022-09-20T18:44:13.574Z,0.53
2022-09-20T18:46:43.103Z,0.77
2022-09-20T18:49:14.912Z,0.33
2022-09-20T18:51:43.889Z,0.30
2022-09-20T18:54:12.665Z,0.83
2022-09-20T18:56:42.594Z,0.70
2022-09-20T18:59:15.852Z,0.70
2022-09-20T19:02:14.600Z,0.60
2022-09-20T19:05:11.864Z,0.67
2022-09-20T19:07:49.944Z,0.27
2022-09-20T19:10:25.997Z,1.03
2022-09-20T19:13:01.111Z,0.70
2022-09-20T19:15:41.695Z,0.30
2022-09-20T19:18:24.050Z,0.40
2022-09-20T19:20:57.600Z,0.40
2022-09-20T19:23:42.855Z,0.30
2022-09-20T19:26:20.104Z,0.20
2022-09-20T19:28:48.965Z,0.60
2022-09-20T19:31:23.069Z,0.67
2022-09-20T19:33:54.800Z,0.50
2022-09-20T19:36:23.731Z,0.30
2022-09-20T19:39:03.810Z,0.40
2022-09-20T19:41:41.520Z,0.40
2022-09-20T19:44:22.805Z,0.30
2022-09-20T19:47:02.691Z,0.87
2022-09-20T19:49:42.746Z,0.67
2022-09-20T19:52:13.329Z,0.40
2022-09-20T19:54:46.267Z,0.50
2022-09-20T19:57:20.158Z,0.30
2022-09-20T19:59:49.109Z,1.03
2022-09-20T20:02:17.736Z,1.73
2022-09-20T20:04:47.252Z,0.90
2022-09-20T20:07:27.752Z,1.07
2022-09-20T20:10:03.526Z,1.67
2022-09-20T20:12:36.472Z,2.20
2022-09-20T20:15:17.833Z,2.07
2022-09-20T20:17:54.420Z,1.70
2022-09-20T20:20:33.766Z,1.43
2022-09-20T20:23:22.098Z,1.10
2022-09-20T20:25:59.942Z,1.10
2022-09-20T20:28:27.804Z,0.77
2022-09-20T20:30:59.208Z,2.30
2022-09-20T20:33:27.590Z,1.47
2022-09-20T20:35:57.632Z,0.83
2022-09-20T20:38:26.585Z,1.10
2022-09-20T20:41:04.724Z,1.23
2022-09-20T20:43:32.974Z,1.40
2022-09-20T20:46:01.146Z,0.53
2022-09-20T20:48:28.941Z,1.53
2022-09-20T20:51:05.934Z,0.60
2022-09-20T20:53:34.497Z,1.40
2022-09-20T20:56:03.718Z,0.70
2022-09-20T20:58:33.261Z,0.33
2022-09-20T21:01:08.792Z,1.13
2022-09-20T21:03:36.845Z,1.00
2022-09-20T21:06:06.340Z,2.47
2022-09-20T21:08:35.851Z,2.80
2022-09-20T21:11:06.101Z,2.53
2022-09-20T21:13:35.209Z,1.20
2022-09-20T21:16:05.067Z,0.90
2022-09-20T21:18:34.648Z,2.00
2022-09-20T21:21:03.530Z,0.90
2022-09-20T21:23:36.237Z,1.03
2022-09-20T21:26:08.426Z,1.10
2022-09-20T21:28:37.850Z,0.90
2022-09-20T21:31:06.905Z,0.90
2022-09-20T21:33:36.097Z,0.67
2022-09-20T21:36:04.845Z,2.60
2022-09-20T21:38:34.534Z,0.80
2022-09-20T21:41:04.986Z,0.77
2022-09-20T21:43:32.830Z,1.10
2022-09-20T21:46:00.901Z,1.20
2022-09-20T21:48:29.892Z,0.80
2022-09-20T21:51:05.565Z,0.80
2022-09-20T21:53:35.020Z,0.50
2022-09-20T21:56:04.851Z,1.53
2022-09-20T21:58:32.750Z,0.70
2022-09-20T22:01:02.302Z,1.07
2022-09-20T22:03:34.842Z,0.77
2022-09-20T22:06:08.687Z,0.60
2022-09-20T22:08:39.666Z,0.80
2022-09-20T22:11:12.216Z,0.97
2022-09-20T22:13:43.254Z,1.60
2022-09-20T22:16:12.953Z,0.40
2022-09-20T22:18:42.002Z,0.40
2022-09-20T22:21:12.199Z,0.57
2022-09-20T22:23:42.300Z,0.47
2022-09-20T22:26:13.159Z,0.80
2022-09-20T22:28:41.306Z,0.70
2022-09-20T22:31:11.834Z,0.87
2022-09-20T22:33:43.362Z,1.03
2022-09-20T22:36:14.108Z,0.70
2022-09-20T22:38:43.705Z,1.17
2022-09-20T22:41:12.844Z,0.43
2022-09-20T22:43:41.697Z,0.80
2022-09-20T22:46:11.397Z,0.40
2022-09-20T22:48:40.036Z,1.73
2022-09-20T22:51:09.518Z,0.70
2022-09-20T22:53:38.184Z,0.97
2022-09-20T22:56:10.277Z,0.73
2022-09-20T22:58:40.805Z,0.80
2022-09-20T23:01:11.050Z,0.60
2022-09-20T23:03:39.398Z,0.70
2022-09-20T23:06:15.678Z,1.60
2022-09-20T23:08:43.763Z,1.87
2022-09-20T23:11:13.127Z,1.13
2022-09-20T23:13:40.798Z,1.17
2022-09-20T23:16:13.824Z,1.30
2022-09-20T23:18:41.522Z,0.90
2022-09-20T23:21:09.696Z,1.17
2022-09-20T23:23:37.856Z,1.90
2022-09-20T23:26:08.496Z,1.60
2022-09-20T23:28:39.435Z,1.33
2022-09-20T23:31:09.935Z,1.97
2022-09-20T23:33:37.731Z,1.10
2022-09-20T23:36:07.607Z,1.13
2022-09-20T23:38:35.386Z,1.57
2022-09-20T23:41:04.683Z,1.77
2022-09-20T23:43:32.641Z,1.27
2022-09-20T23:46:02.122Z,1.27
2022-09-20T23:48:30.639Z,0.77
2022-09-20T23:50:58.909Z,1.00
2022-09-20T23:53:26.514Z,1.60
2022-09-20T23:55:54.739Z,1.73
2022-09-20T23:58:22.554Z,4.27
